logo
Search for airport 
image banner adimage banner adimage banner ad
image banner ad

LTBO - Usak

Located in Usak, Turkey

ICAO - LTBO, IATA - USQ

Data provided by Airmate  

General information

Coordinates: N38°40'53" E29°28'18"
Elevation is 2898 feet MSL.
Magnetic variation is 5.1° East
View others Airports in Usak

Operational data

Special qualification required
Current time UTC:
Current local time:
Weather
TAF: TAF LTBO 151340Z 1515/1524 04012KT 9999 SCT040 BECMG 1515/1519 CAVOK TEMPO 1518/1521 04015G25KT TEMPO 1521/1524 04015G25KT
View NOTAMs / SUP AIP / TFR affecting this airport [VIEW]
Communications frequencies: [VIEW]

Runways:

RWY identifierQFULength (ft)Width (ft)SurfaceLDA (ft)
0991°8399148CONC8399
27271°8399148CONC8399

Airport contact information

Satellite view of LTBO